sensor_id;sensor_type;location;lat;lon;timestamp;temperature;humidity
3925;DHT22;1977;52.274;10.518;2024-03-23T00:53:31;12.60;99.90
3925;DHT22;1977;52.274;10.518;2024-03-23T00:55:59;12.70;99.90
3925;DHT22;1977;52.274;10.518;2024-03-23T00:58:24;12.70;99.90
3925;DHT22;1977;52.274;10.518;2024-03-23T01:00:51;12.70;99.90
3925;DHT22;1977;52.274;10.518;2024-03-23T01:03:17;12.70;99.90
3925;DHT22;1977;52.274;10.518;2024-03-23T01:05:44;12.60;99.90
3925;DHT22;1977;52.274;10.518;2024-03-23T01:08:09;12.60;99.90
3925;DHT22;1977;52.274;10.518;2024-03-23T01:10:37;12.70;99.90
3925;DHT22;1977;52.274;10.518;2024-03-23T01:13:03;12.70;99.90
3925;DHT22;1977;52.274;10.518;2024-03-23T01:15:30;12.70;99.90
3925;DHT22;1977;52.274;10.518;2024-03-23T01:17:56;12.60;99.90
3925;DHT22;1977;52.274;10.518;2024-03-23T01:20:23;12.50;99.90
3925;DHT22;1977;52.274;10.518;2024-03-23T01:22:48;12.60;99.90
3925;DHT22;1977;52.274;10.518;2024-03-23T01:25:15;12.60;99.90
3925;DHT22;1977;52.274;10.518;2024-03-23T01:27:42;12.60;99.90
3925;DHT22;1977;52.274;10.518;2024-03-23T01:30:09;12.60;99.90
3925;DHT22;1977;52.274;10.518;2024-03-23T01:32:35;12.60;99.90
3925;DHT22;1977;52.274;10.518;2024-03-23T01:35:02;12.50;99.90
3925;DHT22;1977;52.274;10.518;2024-03-23T01:37:29;12.60;99.90
3925;DHT22;1977;52.274;10.518;2024-03-23T01:39:56;12.50;99.90
3925;DHT22;1977;52.274;10.518;2024-03-23T01:42:22;12.40;99.90
3925;DHT22;1977;52.274;10.518;2024-03-23T01:44:50;12.80;99.90
3925;DHT22;1977;52.274;10.518;2024-03-23T01:47:16;12.40;99.90
3925;DHT22;1977;52.274;10.518;2024-03-23T01:49:43;12.30;99.90
3925;DHT22;1977;52.274;10.518;2024-03-23T01:52:09;12.30;99.90
3925;DHT22;1977;52.274;10.518;2024-03-23T01:54:36;12.30;99.90
3925;DHT22;1977;52.274;10.518;2024-03-23T01:57:02;12.30;99.90
3925;DHT22;1977;52.274;10.518;2024-03-23T01:59:29;12.20;99.90
3925;DHT22;1977;52.274;10.518;2024-03-23T02:01:57;12.20;99.90
3925;DHT22;1977;52.274;10.518;2024-03-23T02:04:23;12.60;99.90
3925;DHT22;1977;52.274;10.518;2024-03-23T02:06:49;12.10;99.90
3925;DHT22;1977;52.274;10.518;2024-03-23T02:09:16;12.00;99.90
3925;DHT22;1977;52.274;10.518;2024-03-23T02:11:42;12.00;99.90
3925;DHT22;1977;52.274;10.518;2024-03-23T02:14:09;11.90;99.90
3925;DHT22;1977;52.274;10.518;2024-03-23T02:16:34;11.90;99.90
3925;DHT22;1977;52.274;10.518;2024-03-23T02:19:02;11.80;99.90
3925;DHT22;1977;52.274;10.518;2024-03-23T02:21:28;11.80;99.90
3925;DHT22;1977;52.274;10.518;2024-03-23T02:23:58;11.70;99.90
3925;DHT22;1977;52.274;10.518;2024-03-23T02:26:24;11.80;99.90
3925;DHT22;1977;52.274;10.518;2024-03-23T02:28:51;11.80;99.90
3925;DHT22;1977;52.274;10.518;2024-03-23T02:31:17;11.80;99.90
3925;DHT22;1977;52.274;10.518;2024-03-23T02:33:44;11.80;99.90
3925;DHT22;1977;52.274;10.518;2024-03-23T02:36:09;11.80;99.90
3925;DHT22;1977;52.274;10.518;2024-03-23T02:38:36;11.80;99.90
3925;DHT22;1977;52.274;10.518;2024-03-23T02:41:04;11.80;99.90
3925;DHT22;1977;52.274;10.518;2024-03-23T02:43:31;11.80;99.90
3925;DHT22;1977;52.274;10.518;2024-03-23T02:45:57;11.80;99.90
3925;DHT22;1977;52.274;10.518;2024-03-23T02:48:24;11.80;99.90
3925;DHT22;1977;52.274;10.518;2024-03-23T02:50:49;11.80;99.90
3925;DHT22;1977;52.274;10.518;2024-03-23T02:53:16;11.70;99.90
3925;DHT22;1977;52.274;10.518;2024-03-23T02:55:42;11.90;99.90
3925;DHT22;1977;52.274;10.518;2024-03-23T02:58:11;11.80;99.90
3925;DHT22;1977;52.274;10.518;2024-03-23T03:00:37;11.70;99.90
3925;DHT22;1977;52.274;10.518;2024-03-23T03:03:04;11.70;99.90
3925;DHT22;1977;52.274;10.518;2024-03-23T03:05:30;11.70;99.90
3925;DHT22;1977;52.274;10.518;2024-03-23T03:07:57;11.70;99.90
3925;DHT22;1977;52.274;10.518;2024-03-23T03:10:23;11.60;99.90
3925;DHT22;1977;52.274;10.518;2024-03-23T03:12:49;11.60;99.90
3925;DHT22;1977;52.274;10.518;2024-03-23T03:15:16;12.00;99.90
3925;DHT22;1977;52.274;10.518;2024-03-23T03:17:44;11.60;99.90
3925;DHT22;1977;52.274;10.518;2024-03-23T03:20:10;11.60;99.90
3925;DHT22;1977;52.274;10.518;2024-03-23T03:22:39;11.50;99.90
3925;DHT22;1977;52.274;10.518;2024-03-23T03:25:05;11.50;99.90
3925;DHT22;1977;52.274;10.518;2024-03-23T03:27:33;11.40;99.90
3925;DHT22;1977;52.274;10.518;2024-03-23T03:29:59;11.40;99.90
3925;DHT22;1977;52.274;10.518;2024-03-23T03:32:29;11.60;99.90
3925;DHT22;1977;52.274;10.518;2024-03-23T03:34:55;11.50;99.90
3925;DHT22;1977;52.274;10.518;2024-03-23T03:37:22;11.50;99.90
3925;DHT22;1977;52.274;10.518;2024-03-23T03:39:48;11.50;99.90
3925;DHT22;1977;52.274;10.518;2024-03-23T03:42:14;11.50;99.90
3925;DHT22;1977;52.274;10.518;2024-03-23T03:44:40;11.50;99.90
3925;DHT22;1977;52.274;10.518;2024-03-23T03:47:07;11.50;99.90
3925;DHT22;1977;52.274;10.518;2024-03-23T03:49:34;11.60;99.90
3925;DHT22;1977;52.274;10.518;2024-03-23T03:52:01;11.60;99.90
3925;DHT22;1977;52.274;10.518;2024-03-23T03:54:27;11.60;99.90
3925;DHT22;1977;52.274;10.518;2024-03-23T03:56:54;11.60;99.90
3925;DHT22;1977;52.274;10.518;2024-03-23T03:59:20;11.70;99.90
3925;DHT22;1977;52.274;10.518;2024-03-23T04:01:47;11.60;99.90
3925;DHT22;1977;52.274;10.518;2024-03-23T04:04:12;11.70;99.90
3925;DHT22;1977;52.274;10.518;2024-03-23T04:06:43;11.70;99.90
3925;DHT22;1977;52.274;10.518;2024-03-23T04:09:09;11.70;99.90
3925;DHT22;1977;52.274;10.518;2024-03-23T04:11:36;11.70;99.90
3925;DHT22;1977;52.274;10.518;2024-03-23T04:14:02;11.70;99.90
3925;DHT22;1977;52.274;10.518;2024-03-23T04:16:33;11.70;99.90
3925;DHT22;1977;52.274;10.518;2024-03-23T04:18:59;11.70;99.90
3925;DHT22;1977;52.274;10.518;2024-03-23T04:21:25;11.70;99.90
3925;DHT22;1977;52.274;10.518;2024-03-23T04:23:53;11.60;99.90
3925;DHT22;1977;52.274;10.518;2024-03-23T04:26:19;11.50;99.90
3925;DHT22;1977;52.274;10.518;2024-03-23T04:28:45;11.50;99.90
3925;DHT22;1977;52.274;10.518;2024-03-23T04:31:12;11.50;99.90
3925;DHT22;1977;52.274;10.518;2024-03-23T04:33:38;11.50;99.90
3925;DHT22;1977;52.274;10.518;2024-03-23T04:36:05;11.50;99.90
3925;DHT22;1977;52.274;10.518;2024-03-23T04:38:32;11.60;99.90
3925;DHT22;1977;52.274;10.518;2024-03-23T04:41:00;11.60;99.90
3925;DHT22;1977;52.274;10.518;2024-03-23T04:43:28;11.50;99.90
3925;DHT22;1977;52.274;10.518;2024-03-23T04:45:55;11.50;99.90
3925;DHT22;1977;52.274;10.518;2024-03-23T04:48:23;11.40;99.90
3925;DHT22;1977;52.274;10.518;2024-03-23T04:50:54;11.40;99.90
3925;DHT22;1977;52.274;10.518;2024-03-23T04:53:23;11.40;99.90
3925;DHT22;1977;52.274;10.518;2024-03-23T04:55:53;11.40;99.90
3925;DHT22;1977;52.274;10.518;2024-03-23T04:58:21;11.40;99.90
3925;DHT22;1977;52.274;10.518;2024-03-23T05:00:47;11.50;99.90
3925;DHT22;1977;52.274;10.518;2024-03-23T05:03:15;11.30;99.90
3925;DHT22;1977;52.274;10.518;2024-03-23T05:05:41;11.20;99.90
3925;DHT22;1977;52.274;10.518;2024-03-23T05:08:07;11.30;99.90
3925;DHT22;1977;52.274;10.518;2024-03-23T05:10:34;11.30;99.90
3925;DHT22;1977;52.274;10.518;2024-03-23T05:13:01;11.60;99.90
3925;DHT22;1977;52.274;10.518;2024-03-23T05:15:28;11.40;99.90
3925;DHT22;1977;52.274;10.518;2024-03-23T05:17:55;11.40;99.90
3925;DHT22;1977;52.274;10.518;2024-03-23T05:20:22;11.40;99.90
3925;DHT22;1977;52.274;10.518;2024-03-23T05:22:49;11.30;99.90
3925;DHT22;1977;52.274;10.518;2024-03-23T05:25:16;11.30;99.90
3925;DHT22;1977;52.274;10.518;2024-03-23T05:27:41;11.40;99.90
3925;DHT22;1977;52.274;10.518;2024-03-23T05:30:09;11.40;99.90
3925;DHT22;1977;52.274;10.518;2024-03-23T05:32:37;11.30;99.90
3925;DHT22;1977;52.274;10.518;2024-03-23T05:35:06;11.20;99.90
3925;DHT22;1977;52.274;10.518;2024-03-23T05:37:33;11.30;99.90
3925;DHT22;1977;52.274;10.518;2024-03-23T05:40:00;11.40;99.90
3925;DHT22;1977;52.274;10.518;2024-03-23T05:42:26;11.50;99.90
3925;DHT22;1977;52.274;10.518;2024-03-23T05:44:53;11.40;99.90
3925;DHT22;1977;52.274;10.518;2024-03-23T05:47:19;11.20;99.90
3925;DHT22;1977;52.274;10.518;2024-03-23T05:49:47;11.30;99.90
3925;DHT22;1977;52.274;10.518;2024-03-23T05:52:13;11.40;99.90
3925;DHT22;1977;52.274;10.518;2024-03-23T05:54:40;11.30;99.90
3925;DHT22;1977;52.274;10.518;2024-03-23T05:57:08;11.30;99.90
3925;DHT22;1977;52.274;10.518;2024-03-23T05:59:35;11.60;99.90
3925;DHT22;1977;52.274;10.518;2024-03-23T06:02:01;11.30;99.90
3925;DHT22;1977;52.274;10.518;2024-03-23T06:04:29;11.30;99.90
3925;DHT22;1977;52.274;10.518;2024-03-23T06:06:56;11.30;99.90
3925;DHT22;1977;52.274;10.518;2024-03-23T06:09:23;11.30;99.90
3925;DHT22;1977;52.274;10.518;2024-03-23T06:11:49;11.30;99.90
3925;DHT22;1977;52.274;10.518;2024-03-23T06:14:16;11.60;99.90
3925;DHT22;1977;52.274;10.518;2024-03-23T06:16:42;11.30;99.90
3925;DHT22;1977;52.274;10.518;2024-03-23T06:19:08;11.30;99.90
3925;DHT22;1977;52.274;10.518;2024-03-23T06:21:35;11.30;99.90
3925;DHT22;1977;52.274;10.518;2024-03-23T06:24:04;11.30;99.90
3925;DHT22;1977;52.274;10.518;2024-03-23T06:26:30;11.30;99.90
3925;DHT22;1977;52.274;10.518;2024-03-23T06:28:57;11.10;99.90
3925;DHT22;1977;52.274;10.518;2024-03-23T06:31:22;11.00;99.90
3925;DHT22;1977;52.274;10.518;2024-03-23T06:33:49;11.00;99.90
3925;DHT22;1977;52.274;10.518;2024-03-23T06:36:15;10.90;99.90
3925;DHT22;1977;52.274;10.518;2024-03-23T06:38:42;10.80;99.90
3925;DHT22;1977;52.274;10.518;2024-03-23T06:41:09;10.70;99.90
3925;DHT22;1977;52.274;10.518;2024-03-23T06:43:37;10.70;99.90
3925;DHT22;1977;52.274;10.518;2024-03-23T06:46:03;10.70;99.90
3925;DHT22;1977;52.274;10.518;2024-03-23T06:48:30;10.70;99.90
3925;DHT22;1977;52.274;10.518;2024-03-23T06:50:57;10.80;99.90
3925;DHT22;1977;52.274;10.518;2024-03-23T06:53:24;11.20;99.90
3925;DHT22;1977;52.274;10.518;2024-03-23T06:55:51;10.80;99.90
3925;DHT22;1977;52.274;10.518;2024-03-23T06:58:20;10.70;99.90
3925;DHT22;1977;52.274;10.518;2024-03-23T07:00:46;10.80;99.90
3925;DHT22;1977;52.274;10.518;2024-03-23T07:03:13;10.80;99.90
3925;DHT22;1977;52.274;10.518;2024-03-23T07:05:39;10.90;99.90
3925;DHT22;1977;52.274;10.518;2024-03-23T07:08:06;10.90;99.90
3925;DHT22;1977;52.274;10.518;2024-03-23T07:10:32;10.90;99.90
3925;DHT22;1977;52.274;10.518;2024-03-23T07:12:59;10.90;99.90
3925;DHT22;1977;52.274;10.518;2024-03-23T07:15:26;10.80;99.90
3925;DHT22;1977;52.274;10.518;2024-03-23T07:17:52;10.70;99.90
3925;DHT22;1977;52.274;10.518;2024-03-23T07:20:18;10.80;99.90
3925;DHT22;1977;52.274;10.518;2024-03-23T07:22:45;10.90;99.90
3925;DHT22;1977;52.274;10.518;2024-03-23T07:25:11;10.90;99.90
3925;DHT22;1977;52.274;10.518;2024-03-23T07:27:38;10.90;99.90
3925;DHT22;1977;52.274;10.518;2024-03-23T07:30:04;10.90;99.90
3925;DHT22;1977;52.274;10.518;2024-03-23T07:32:33;10.90;99.90
3925;DHT22;1977;52.274;10.518;2024-03-23T07:34:59;10.90;99.90
3925;DHT22;1977;52.274;10.518;2024-03-23T07:37:25;11.00;99.90
3925;DHT22;1977;52.274;10.518;2024-03-23T07:39:51;11.00;99.90
3925;DHT22;1977;52.274;10.518;2024-03-23T07:42:18;11.00;99.90
3925;DHT22;1977;52.274;10.518;2024-03-23T07:44:44;11.10;99.90
3925;DHT22;1977;52.274;10.518;2024-03-23T07:47:12;11.10;99.90
3925;DHT22;1977;52.274;10.518;2024-03-23T07:49:39;11.20;99.90
3925;DHT22;1977;52.274;10.518;2024-03-23T07:52:06;11.20;99.90
3925;DHT22;1977;52.274;10.518;2024-03-23T07:54:33;11.20;99.90
3925;DHT22;1977;52.274;10.518;2024-03-23T07:57:00;11.20;99.90
3925;DHT22;1977;52.274;10.518;2024-03-23T07:59:26;10.90;99.90
3925;DHT22;1977;52.274;10.518;2024-03-23T08:01:53;11.00;99.90
3925;DHT22;1977;52.274;10.518;2024-03-23T08:04:20;11.00;99.90
3925;DHT22;1977;52.274;10.518;2024-03-23T08:06:48;11.00;99.90
3925;DHT22;1977;52.274;10.518;2024-03-23T08:09:14;11.00;99.90
3925;DHT22;1977;52.274;10.518;2024-03-23T08:11:41;11.10;99.90
3925;DHT22;1977;52.274;10.518;2024-03-23T08:14:09;11.10;99.90
3925;DHT22;1977;52.274;10.518;2024-03-23T08:16:36;11.10;99.90
3925;DHT22;1977;52.274;10.518;2024-03-23T08:19:01;11.00;99.90
3925;DHT22;1977;52.274;10.518;2024-03-23T08:21:29;11.00;99.90
3925;DHT22;1977;52.274;10.518;2024-03-23T08:23:56;11.10;99.90
3925;DHT22;1977;52.274;10.518;2024-03-23T08:26:25;11.10;99.90
3925;DHT22;1977;52.274;10.518;2024-03-23T08:28:51;11.20;99.90
3925;DHT22;1977;52.274;10.518;2024-03-23T08:31:18;11.20;99.90
3925;DHT22;1977;52.274;10.518;2024-03-23T08:33:43;11.20;99.90
3925;DHT22;1977;52.274;10.518;2024-03-23T08:36:10;11.20;99.90
3925;DHT22;1977;52.274;10.518;2024-03-23T08:38:37;11.10;99.90
3925;DHT22;1977;52.274;10.518;2024-03-23T08:41:07;11.20;99.90
3925;DHT22;1977;52.274;10.518;2024-03-23T08:43:35;11.10;99.90
3925;DHT22;1977;52.274;10.518;2024-03-23T08:46:06;11.20;99.90
3925;DHT22;1977;52.274;10.518;2024-03-23T08:48:32;11.20;99.90
3925;DHT22;1977;52.274;10.518;2024-03-23T08:51:03;11.10;99.90
3925;DHT22;1977;52.274;10.518;2024-03-23T08:53:30;11.20;99.90
3925;DHT22;1977;52.274;10.518;2024-03-23T08:55:57;11.10;99.90
3925;DHT22;1977;52.274;10.518;2024-03-23T08:58:25;11.20;99.90
3925;DHT22;1977;52.274;10.518;2024-03-23T09:00:53;11.30;99.90
3925;DHT22;1977;52.274;10.518;2024-03-23T09:03:21;11.30;99.90
3925;DHT22;1977;52.274;10.518;2024-03-23T09:05:49;11.40;99.90
3925;DHT22;1977;52.274;10.518;2024-03-23T09:08:15;11.40;99.90
3925;DHT22;1977;52.274;10.518;2024-03-23T09:10:42;11.50;99.90
3925;DHT22;1977;52.274;10.518;2024-03-23T09:13:08;11.60;99.90
3925;DHT22;1977;52.274;10.518;2024-03-23T09:15:44;11.60;99.90
3925;DHT22;1977;52.274;10.518;2024-03-23T09:18:10;11.70;99.90
3925;DHT22;1977;52.274;10.518;2024-03-23T09:20:37;11.80;99.90
3925;DHT22;1977;52.274;10.518;2024-03-23T09:23:03;11.80;99.90
3925;DHT22;1977;52.274;10.518;2024-03-23T09:25:30;11.80;99.90
3925;DHT22;1977;52.274;10.518;2024-03-23T09:27:56;11.70;99.90
3925;DHT22;1977;52.274;10.518;2024-03-23T09:30:22;11.80;99.90
3925;DHT22;1977;52.274;10.518;2024-03-23T09:32:50;11.80;99.90
3925;DHT22;1977;52.274;10.518;2024-03-23T09:35:16;11.80;99.90
3925;DHT22;1977;52.274;10.518;2024-03-23T09:37:42;11.70;99.90
3925;DHT22;1977;52.274;10.518;2024-03-23T09:40:10;11.70;99.90
3925;DHT22;1977;52.274;10.518;2024-03-23T09:42:36;11.70;99.90
3925;DHT22;1977;52.274;10.518;2024-03-23T09:45:05;11.70;99.90
3925;DHT22;1977;52.274;10.518;2024-03-23T09:47:32;11.70;99.90
3925;DHT22;1977;52.274;10.518;2024-03-23T09:50:01;11.60;99.90
3925;DHT22;1977;52.274;10.518;2024-03-23T09:52:27;11.60;99.90
3925;DHT22;1977;52.274;10.518;2024-03-23T09:54:54;11.50;99.90
3925;DHT22;1977;52.274;10.518;2024-03-23T09:57:19;11.60;99.90
3925;DHT22;1977;52.274;10.518;2024-03-23T09:59:46;11.70;99.90
3925;DHT22;1977;52.274;10.518;2024-03-23T10:02:13;11.80;99.90
3925;DHT22;1977;52.274;10.518;2024-03-23T10:04:42;11.80;99.90
3925;DHT22;1977;52.274;10.518;2024-03-23T10:07:14;11.90;99.90
3925;DHT22;1977;52.274;10.518;2024-03-23T10:09:41;12.10;99.90
3925;DHT22;1977;52.274;10.518;2024-03-23T10:12:10;12.00;99.90
3925;DHT22;1977;52.274;10.518;2024-03-23T10:14:37;12.10;99.90
3925;DHT22;1977;52.274;10.518;2024-03-23T10:17:14;12.10;99.90
3925;DHT22;1977;52.274;10.518;2024-03-23T10:19:43;12.30;99.90
3925;DHT22;1977;52.274;10.518;2024-03-23T10:22:09;12.60;99.90
3925;DHT22;1977;52.274;10.518;2024-03-23T10:24:38;13.00;99.90
3925;DHT22;1977;52.274;10.518;2024-03-23T10:27:03;13.10;99.90
3925;DHT22;1977;52.274;10.518;2024-03-23T10:29:30;13.10;99.90
3925;DHT22;1977;52.274;10.518;2024-03-23T10:32:08;13.20;99.90
3925;DHT22;1977;52.274;10.518;2024-03-23T10:34:35;13.20;99.90
3925;DHT22;1977;52.274;10.518;2024-03-23T10:37:02;13.20;99.90
3925;DHT22;1977;52.274;10.518;2024-03-23T10:39:31;13.20;99.90
3925;DHT22;1977;52.274;10.518;2024-03-23T10:42:02;13.20;99.90
3925;DHT22;1977;52.274;10.518;2024-03-23T10:44:29;13.30;99.90
3925;DHT22;1977;52.274;10.518;2024-03-23T10:46:57;13.30;99.90
3925;DHT22;1977;52.274;10.518;2024-03-23T10:49:26;13.40;99.90
3925;DHT22;1977;52.274;10.518;2024-03-23T10:51:55;13.20;99.90
3925;DHT22;1977;52.274;10.518;2024-03-23T10:54:24;13.00;99.70
3925;DHT22;1977;52.274;10.518;2024-03-23T10:56:52;12.90;99.90
3925;DHT22;1977;52.274;10.518;2024-03-23T10:59:21;12.70;99.10
3925;DHT22;1977;52.274;10.518;2024-03-23T11:01:56;12.40;98.80
3925;DHT22;1977;52.274;10.518;2024-03-23T11:04:30;12.20;99.30
3925;DHT22;1977;52.274;10.518;2024-03-23T11:06:56;12.00;99.60
3925;DHT22;1977;52.274;10.518;2024-03-23T11:09:38;12.00;99.90
3925;DHT22;1977;52.274;10.518;2024-03-23T11:12:24;12.20;99.90
3925;DHT22;1977;52.274;10.518;2024-03-23T11:14:54;12.50;99.90
3925;DHT22;1977;52.274;10.518;2024-03-23T11:17:21;12.80;99.90
3925;DHT22;1977;52.274;10.518;2024-03-23T11:19:53;12.80;99.90
3925;DHT22;1977;52.274;10.518;2024-03-23T11:22:37;12.90;99.90
3925;DHT22;1977;52.274;10.518;2024-03-23T11:25:15;13.00;99.90
3925;DHT22;1977;52.274;10.518;2024-03-23T11:27:42;13.10;99.90
3925;DHT22;1977;52.274;10.518;2024-03-23T11:30:18;13.10;99.90
3925;DHT22;1977;52.274;10.518;2024-03-23T11:32:44;13.30;99.90
3925;DHT22;1977;52.274;10.518;2024-03-23T11:35:25;13.40;99.90
3925;DHT22;1977;52.274;10.518;2024-03-23T11:38:04;13.50;99.30
3925;DHT22;1977;52.274;10.518;2024-03-23T11:40:32;13.60;98.80
3925;DHT22;1977;52.274;10.518;2024-03-23T11:43:01;13.70;97.00
3925;DHT22;1977;52.274;10.518;2024-03-23T11:45:34;13.80;96.70
3925;DHT22;1977;52.274;10.518;2024-03-23T11:48:08;13.90;95.40
3925;DHT22;1977;52.274;10.518;2024-03-23T11:50:37;13.90;96.90
3925;DHT22;1977;52.274;10.518;2024-03-23T11:53:07;13.90;95.20
3925;DHT22;1977;52.274;10.518;2024-03-23T11:55:45;13.80;95.40
3925;DHT22;1977;52.274;10.518;2024-03-23T11:58:11;13.70;95.90
3925;DHT22;1977;52.274;10.518;2024-03-23T12:00:40;13.30;96.00
3925;DHT22;1977;52.274;10.518;2024-03-23T12:03:06;13.20;97.40
3925;DHT22;1977;52.274;10.518;2024-03-23T12:05:33;13.20;98.20
3925;DHT22;1977;52.274;10.518;2024-03-23T12:08:18;13.00;98.80
3925;DHT22;1977;52.274;10.518;2024-03-23T12:10:47;12.80;99.40
3925;DHT22;1977;52.274;10.518;2024-03-23T12:13:21;12.80;99.90
3925;DHT22;1977;52.274;10.518;2024-03-23T12:15:50;12.50;99.90
3925;DHT22;1977;52.274;10.518;2024-03-23T12:18:16;12.50;99.90
3925;DHT22;1977;52.274;10.518;2024-03-23T12:20:43;12.50;99.90
3925;DHT22;1977;52.274;10.518;2024-03-23T12:23:10;12.50;99.90
3925;DHT22;1977;52.274;10.518;2024-03-23T12:25:38;12.40;99.90
3925;DHT22;1977;52.274;10.518;2024-03-23T12:28:04;12.40;99.90
3925;DHT22;1977;52.274;10.518;2024-03-23T12:30:34;12.40;99.90
3925;DHT22;1977;52.274;10.518;2024-03-23T12:33:01;12.30;99.90
3925;DHT22;1977;52.274;10.518;2024-03-23T12:35:28;12.30;99.30
3925;DHT22;1977;52.274;10.518;2024-03-23T12:37:54;12.20;99.10
3925;DHT22;1977;52.274;10.518;2024-03-23T12:40:21;12.20;99.10
3925;DHT22;1977;52.274;10.518;2024-03-23T12:42:47;12.30;99.20
3925;DHT22;1977;52.274;10.518;2024-03-23T12:45:14;12.20;99.50
3925;DHT22;1977;52.274;10.518;2024-03-23T12:47:39;12.30;99.90
3925;DHT22;1977;52.274;10.518;2024-03-23T12:50:08;12.30;99.10
3925;DHT22;1977;52.274;10.518;2024-03-23T12:52:35;12.30;98.20
3925;DHT22;1977;52.274;10.518;2024-03-23T12:55:02;12.30;98.50
3925;DHT22;1977;52.274;10.518;2024-03-23T12:57:29;12.20;98.80
3925;DHT22;1977;52.274;10.518;2024-03-23T12:59:55;12.20;99.10
3925;DHT22;1977;52.274;10.518;2024-03-23T13:02:22;12.20;99.10
3925;DHT22;1977;52.274;10.518;2024-03-23T13:04:50;12.10;99.50
3925;DHT22;1977;52.274;10.518;2024-03-23T13:07:17;12.00;99.80
3925;DHT22;1977;52.274;10.518;2024-03-23T13:09:44;12.00;99.90
3925;DHT22;1977;52.274;10.518;2024-03-23T13:12:11;12.10;99.90
3925;DHT22;1977;52.274;10.518;2024-03-23T13:14:38;12.10;99.90
3925;DHT22;1977;52.274;10.518;2024-03-23T13:17:05;12.00;99.70
3925;DHT22;1977;52.274;10.518;2024-03-23T13:19:31;11.80;99.20
3925;DHT22;1977;52.274;10.518;2024-03-23T13:21:58;11.80;99.50
3925;DHT22;1977;52.274;10.518;2024-03-23T13:24:27;11.70;99.70
3925;DHT22;1977;52.274;10.518;2024-03-23T13:26:54;11.70;99.90
3925;DHT22;1977;52.274;10.518;2024-03-23T13:29:20;11.60;99.90
3925;DHT22;1977;52.274;10.518;2024-03-23T13:31:47;11.60;99.90
3925;DHT22;1977;52.274;10.518;2024-03-23T13:34:14;11.60;99.90
3925;DHT22;1977;52.274;10.518;2024-03-23T13:36:41;11.60;99.90
3925;DHT22;1977;52.274;10.518;2024-03-23T13:39:07;11.60;99.90
3925;DHT22;1977;52.274;10.518;2024-03-23T13:41:38;11.70;99.90
3925;DHT22;1977;52.274;10.518;2024-03-23T13:44:04;11.70;99.90
3925;DHT22;1977;52.274;10.518;2024-03-23T13:46:31;11.70;99.90
3925;DHT22;1977;52.274;10.518;2024-03-23T13:48:57;11.90;99.90
3925;DHT22;1977;52.274;10.518;2024-03-23T13:51:24;11.80;99.90
3925;DHT22;1977;52.274;10.518;2024-03-23T13:53:51;11.70;99.90
3925;DHT22;1977;52.274;10.518;2024-03-23T13:56:17;11.80;99.90
3925;DHT22;1977;52.274;10.518;2024-03-23T13:58:45;11.50;99.90
3925;DHT22;1977;52.274;10.518;2024-03-23T14:01:13;11.50;99.90
3925;DHT22;1977;52.274;10.518;2024-03-23T14:03:39;11.50;99.90
3925;DHT22;1977;52.274;10.518;2024-03-23T14:06:07;11.40;99.90
3925;DHT22;1977;52.274;10.518;2024-03-23T14:08:33;11.50;99.90
3925;DHT22;1977;52.274;10.518;2024-03-23T14:11:02;11.30;99.90
3925;DHT22;1977;52.274;10.518;2024-03-23T14:13:28;11.40;99.90
3925;DHT22;1977;52.274;10.518;2024-03-23T14:15:57;11.40;99.90
3925;DHT22;1977;52.274;10.518;2024-03-23T14:18:24;11.50;99.90
3925;DHT22;1977;52.274;10.518;2024-03-23T14:20:52;11.60;99.90
3925;DHT22;1977;52.274;10.518;2024-03-23T14:23:19;11.60;99.90
3925;DHT22;1977;52.274;10.518;2024-03-23T14:25:45;11.60;99.90
3925;DHT22;1977;52.274;10.518;2024-03-23T14:28:12;11.50;99.90
3925;DHT22;1977;52.274;10.518;2024-03-23T14:30:42;11.70;99.90
3925;DHT22;1977;52.274;10.518;2024-03-23T14:33:10;11.70;99.90
3925;DHT22;1977;52.274;10.518;2024-03-23T14:35:36;11.80;99.90
3925;DHT22;1977;52.274;10.518;2024-03-23T14:38:04;11.80;99.90
3925;DHT22;1977;52.274;10.518;2024-03-23T14:40:29;11.80;99.60
3925;DHT22;1977;52.274;10.518;2024-03-23T14:42:56;11.80;99.70
3925;DHT22;1977;52.274;10.518;2024-03-23T14:45:22;11.80;99.60
3925;DHT22;1977;52.274;10.518;2024-03-23T14:47:50;12.00;99.90
3925;DHT22;1977;52.274;10.518;2024-03-23T14:50:17;11.80;99.60
3925;DHT22;1977;52.274;10.518;2024-03-23T14:52:44;11.80;99.40
3925;DHT22;1977;52.274;10.518;2024-03-23T14:55:10;11.80;99.40
3925;DHT22;1977;52.274;10.518;2024-03-23T14:57:37;11.90;99.30
3925;DHT22;1977;52.274;10.518;2024-03-23T15:00:06;11.80;99.10
3925;DHT22;1977;52.274;10.518;2024-03-23T15:02:33;11.80;99.90
3925;DHT22;1977;52.274;10.518;2024-03-23T15:05:00;11.90;99.90
3925;DHT22;1977;52.274;10.518;2024-03-23T15:07:28;11.90;99.90
3925;DHT22;1977;52.274;10.518;2024-03-23T15:09:54;11.90;99.90
3925;DHT22;1977;52.274;10.518;2024-03-23T15:12:21;11.90;99.90
3925;DHT22;1977;52.274;10.518;2024-03-23T15:14:47;11.90;99.90
3925;DHT22;1977;52.274;10.518;2024-03-23T15:17:14;11.90;99.90
3925;DHT22;1977;52.274;10.518;2024-03-23T15:19:39;11.90;99.90
3925;DHT22;1977;52.274;10.518;2024-03-23T15:22:08;11.80;99.90
3925;DHT22;1977;52.274;10.518;2024-03-23T15:24:35;11.70;99.90
3925;DHT22;1977;52.274;10.518;2024-03-23T15:27:02;11.70;99.90
3925;DHT22;1977;52.274;10.518;2024-03-23T15:29:28;11.70;99.90
3925;DHT22;1977;52.274;10.518;2024-03-23T15:31:55;11.60;99.90
3925;DHT22;1977;52.274;10.518;2024-03-23T15:34:22;11.60;99.90
3925;DHT22;1977;52.274;10.518;2024-03-23T15:36:49;11.50;99.90
3925;DHT22;1977;52.274;10.518;2024-03-23T15:46:02;11.20;99.90
3925;DHT22;1977;52.274;10.518;2024-03-23T15:48:30;11.20;99.90
3925;DHT22;1977;52.274;10.518;2024-03-23T15:50:58;11.20;99.50
3925;DHT22;1977;52.274;10.518;2024-03-23T15:53:26;11.40;99.10
3925;DHT22;1977;52.274;10.518;2024-03-23T15:55:53;11.20;98.60
3925;DHT22;1977;52.274;10.518;2024-03-23T15:58:20;11.20;98.20
3925;DHT22;1977;52.274;10.518;2024-03-23T16:00:46;11.30;98.20
3925;DHT22;1977;52.274;10.518;2024-03-23T16:03:21;11.20;97.80
3925;DHT22;1977;52.274;10.518;2024-03-23T16:05:50;11.10;98.00
3925;DHT22;1977;52.274;10.518;2024-03-23T16:08:17;11.10;98.40
3925;DHT22;1977;52.274;10.518;2024-03-23T16:10:43;11.20;98.40
3925;DHT22;1977;52.274;10.518;2024-03-23T16:13:10;11.20;98.50
3925;DHT22;1977;52.274;10.518;2024-03-23T16:15:35;11.20;98.60
3925;DHT22;1977;52.274;10.518;2024-03-23T16:18:02;11.20;98.90
3925;DHT22;1977;52.274;10.518;2024-03-23T16:20:30;11.20;99.70
3925;DHT22;1977;52.274;10.518;2024-03-23T16:22:58;11.30;99.20
3925;DHT22;1977;52.274;10.518;2024-03-23T16:25:24;11.30;99.30
3925;DHT22;1977;52.274;10.518;2024-03-23T16:27:51;11.30;99.50
3925;DHT22;1977;52.274;10.518;2024-03-23T16:30:17;11.30;99.40
3925;DHT22;1977;52.274;10.518;2024-03-23T16:32:44;11.30;99.20
3925;DHT22;1977;52.274;10.518;2024-03-23T16:35:10;11.40;99.10
3925;DHT22;1977;52.274;10.518;2024-03-23T16:37:40;11.30;99.10
3925;DHT22;1977;52.274;10.518;2024-03-23T16:40:07;11.30;99.00
3925;DHT22;1977;52.274;10.518;2024-03-23T16:42:35;11.30;99.00
3925;DHT22;1977;52.274;10.518;2024-03-23T16:45:01;11.40;99.10